createdAt,value
2023-03-29T00:01:09.405Z,100920.47
2023-03-29T00:03:37.108Z,100903.50
2023-03-29T00:06:04.457Z,100933.00
2023-03-29T00:08:32.267Z,100936.56
2023-03-29T00:11:01.899Z,100929.41
2023-03-29T00:13:28.557Z,100926.75
2023-03-29T00:15:55.907Z,100930.28
2023-03-29T00:18:23.311Z,100923.16
2023-03-29T00:20:54.512Z,100932.09
2023-03-29T00:23:21.185Z,100929.41
2023-03-29T00:25:47.890Z,100925.84
2023-03-29T00:28:17.279Z,100929.41
2023-03-29T00:30:46.944Z,100915.09
2023-03-29T00:33:13.949Z,100919.56
2023-03-29T00:35:42.564Z,100921.31
2023-03-29T00:38:09.414Z,100927.56
2023-03-29T00:40:41.950Z,100915.06
2023-03-29T00:43:10.201Z,100919.56
2023-03-29T00:45:43.258Z,100911.53
2023-03-29T00:48:13.537Z,100911.53
2023-03-29T00:50:43.639Z,100916.03
2023-03-29T00:53:13.023Z,100900.84
2023-03-29T00:55:44.674Z,100892.84
2023-03-29T00:58:13.800Z,100902.66
2023-03-29T01:00:49.811Z,100885.72
2023-03-29T01:03:21.897Z,100885.75
2023-03-29T01:05:52.601Z,100886.63
2023-03-29T01:08:20.909Z,100888.44
2023-03-29T01:10:55.082Z,100883.97
2023-03-29T01:13:27.816Z,100874.16
2023-03-29T01:15:58.191Z,100884.00
2023-03-29T01:18:25.130Z,100870.59
2023-03-29T01:21:09.151Z,100870.63
2023-03-29T01:23:51.453Z,100853.63
2023-03-29T01:26:33.045Z,100849.22
2023-03-29T01:29:08.672Z,100851.91
2023-03-29T01:31:45.311Z,100841.16
2023-03-29T01:34:16.917Z,100837.59
2023-03-29T01:36:49.906Z,100841.19
2023-03-29T01:39:17.052Z,100837.59
2023-03-29T01:41:52.654Z,100834.03
2023-03-29T01:44:30.083Z,100821.53
2023-03-29T01:47:04.608Z,100825.13
2023-03-29T01:49:37.831Z,100826.88
2023-03-29T01:52:12.438Z,100822.44
2023-03-29T01:54:48.486Z,100814.41
2023-03-29T01:57:16.582Z,100804.63
2023-03-29T01:59:45.500Z,100797.50
2023-03-29T02:02:15.007Z,100800.16
2023-03-29T02:04:46.207Z,100787.69
2023-03-29T02:07:18.876Z,100785.88
2023-03-29T02:09:49.629Z,100791.22
2023-03-29T02:12:17.934Z,100791.25
2023-03-29T02:14:45.964Z,100788.56
2023-03-29T02:17:17.329Z,100792.16
2023-03-29T02:19:46.161Z,100789.47
2023-03-29T02:22:15.024Z,100785.00
2023-03-29T02:24:45.136Z,100783.22
2023-03-29T02:27:14.120Z,100776.97
2023-03-29T02:29:40.942Z,100762.69
2023-03-29T02:32:18.379Z,100766.25
2023-03-29T02:34:49.415Z,100760.03
2023-03-29T02:37:20.350Z,100765.38
2023-03-29T02:39:49.289Z,100756.44
2023-03-29T02:42:18.107Z,100743.97
2023-03-29T02:44:47.301Z,100739.50
2023-03-29T02:47:20.835Z,100745.72
2023-03-29T02:49:47.684Z,100737.69
2023-03-29T02:52:17.746Z,100751.97
2023-03-29T02:54:47.438Z,100729.66
2023-03-29T02:57:14.211Z,100743.94
2023-03-29T02:59:41.193Z,100734.16
2023-03-29T03:02:08.009Z,100731.47
2023-03-29T03:04:36.412Z,100729.69
2023-03-29T03:07:07.296Z,100729.66
2023-03-29T03:09:41.585Z,100734.13
2023-03-29T03:12:09.191Z,100727.91
2023-03-29T03:14:36.291Z,100727.00
2023-03-29T03:17:04.690Z,100721.63
2023-03-29T03:19:36.417Z,100711.84
2023-03-29T03:22:03.886Z,100709.13
2023-03-29T03:24:34.054Z,100715.38
2023-03-29T03:27:01.020Z,100713.59
2023-03-29T03:29:30.462Z,100715.38
2023-03-29T03:32:15.531Z,100699.31
2023-03-29T03:35:05.966Z,100699.31
2023-03-29T03:37:33.199Z,100707.38
2023-03-29T03:40:02.935Z,100706.44
2023-03-29T03:42:30.187Z,100701.97
2023-03-29T03:44:58.781Z,100695.72
2023-03-29T03:47:58.580Z,100700.19
2023-03-29T03:51:05.211Z,100696.63
2023-03-29T03:53:37.242Z,100697.50
2023-03-29T03:56:13.163Z,100700.16
2023-03-29T03:59:07.873Z,100690.38
2023-03-29T04:01:46.189Z,100700.16
2023-03-29T04:04:17.133Z,100694.81
2023-03-29T04:06:58.492Z,100698.38
2023-03-29T04:09:28.634Z,100694.81
2023-03-29T04:12:10.540Z,100696.56
2023-03-29T04:14:41.885Z,100698.34
2023-03-29T04:17:17.200Z,100695.69
2023-03-29T04:19:51.806Z,100703.69
2023-03-29T04:22:20.282Z,100702.81
2023-03-29T04:24:50.710Z,100701.91
2023-03-29T04:27:44.240Z,100699.25
2023-03-29T04:30:22.187Z,100707.28
2023-03-29T04:33:00.904Z,100697.41
2023-03-29T04:35:27.750Z,100706.38
2023-03-29T04:37:55.723Z,100706.34
2023-03-29T04:40:23.000Z,100694.72
2023-03-29T04:43:11.787Z,100696.50
2023-03-29T04:45:46.400Z,100699.16
2023-03-29T04:48:24.082Z,100700.94
2023-03-29T04:50:50.709Z,100693.75
2023-03-29T04:53:20.217Z,100695.56
2023-03-29T04:55:47.649Z,100688.44
2023-03-29T04:58:23.653Z,100683.06
2023-03-29T05:00:51.745Z,100690.19
2023-03-29T05:03:37.305Z,100688.41
2023-03-29T05:06:17.213Z,100679.47
2023-03-29T05:08:44.996Z,100679.47
2023-03-29T05:11:24.966Z,100669.59
2023-03-29T05:13:51.853Z,100668.69
2023-03-29T05:16:18.568Z,100675.84
2023-03-29T05:18:45.091Z,100674.00
2023-03-29T05:21:11.568Z,100666.88
2023-03-29T05:23:41.134Z,100663.28
2023-03-29T05:26:17.853Z,100661.44
2023-03-29T05:28:49.351Z,100665.00
2023-03-29T05:31:17.265Z,100664.13
2023-03-29T05:33:47.084Z,100661.44
2023-03-29T05:36:14.749Z,100656.97
2023-03-29T05:38:45.759Z,100656.03
2023-03-29T05:41:13.471Z,100662.31
2023-03-29T05:44:00.112Z,100657.84
2023-03-29T05:46:27.908Z,100659.63
2023-03-29T05:48:56.824Z,100652.50
2023-03-29T05:51:35.846Z,100653.38
2023-03-29T05:54:02.497Z,100644.41
2023-03-29T05:56:28.926Z,100638.16
2023-03-29T05:58:55.463Z,100642.59
2023-03-29T06:01:23.965Z,100635.44
2023-03-29T06:03:58.410Z,100639.84
2023-03-29T06:06:32.204Z,100627.31
2023-03-29T06:08:59.674Z,100633.53
2023-03-29T06:11:32.075Z,100638.84
2023-03-29T06:14:21.237Z,100651.34
2023-03-29T06:16:54.669Z,100641.53
2023-03-29T06:19:21.451Z,100647.78
2023-03-29T06:21:48.246Z,100646.00
2023-03-29T06:24:20.112Z,100644.25
2023-03-29T06:26:52.249Z,100643.31
2023-03-29T06:29:18.913Z,100636.22
2023-03-29T06:31:46.685Z,100634.44
2023-03-29T06:34:32.262Z,100624.59
2023-03-29T06:37:19.017Z,100631.69
2023-03-29T06:39:48.125Z,100629.88
2023-03-29T06:42:25.675Z,100626.25
2023-03-29T06:45:11.658Z,100625.38
2023-03-29T06:47:38.700Z,100627.13
2023-03-29T06:50:08.006Z,100630.66
2023-03-29T06:52:41.404Z,100627.03
2023-03-29T06:55:08.814Z,100630.66
2023-03-29T06:57:36.320Z,100625.28
2023-03-29T07:00:05.249Z,100623.44
2023-03-29T07:02:51.674Z,100624.25
2023-03-29T07:05:19.607Z,100638.50
2023-03-29T07:07:48.042Z,100625.06
2023-03-29T07:10:27.318Z,100628.53
2023-03-29T07:13:13.207Z,100637.41
2023-03-29T07:15:41.134Z,100633.91
2023-03-29T07:18:24.362Z,100629.31
2023-03-29T07:20:52.126Z,100627.47
2023-03-29T07:23:18.617Z,100634.63
2023-03-29T07:25:49.438Z,100625.63
2023-03-29T07:28:15.918Z,100633.50
2023-03-29T07:30:42.415Z,100631.69
2023-03-29T07:33:15.500Z,100633.31
2023-03-29T07:35:55.928Z,100638.72
2023-03-29T07:38:22.878Z,100635.09
2023-03-29T07:40:56.076Z,100636.78
2023-03-29T07:43:42.075Z,100633.22
2023-03-29T07:46:10.704Z,100642.22
2023-03-29T07:48:38.460Z,100644.84
2023-03-29T07:51:08.807Z,100643.97
2023-03-29T07:53:46.778Z,100643.06
2023-03-29T07:56:31.607Z,100638.53
2023-03-29T07:59:10.955Z,100632.19
2023-03-29T08:01:38.831Z,100636.63
2023-03-29T08:04:25.621Z,100634.78
2023-03-29T08:07:12.347Z,100630.19
2023-03-29T08:09:59.057Z,100644.38
2023-03-29T08:12:57.827Z,100638.09
2023-03-29T08:15:30.770Z,100640.84
2023-03-29T08:17:57.356Z,100627.22
2023-03-29T08:20:25.357Z,100624.38
2023-03-29T08:22:56.561Z,100635.78
2023-03-29T08:25:25.595Z,100626.00
2023-03-29T08:27:53.781Z,100623.38
2023-03-29T08:30:43.434Z,100624.00
2023-03-29T08:33:09.900Z,100617.38
2023-03-29T08:35:36.429Z,100613.25
2023-03-29T08:38:12.885Z,100613.03
2023-03-29T08:40:39.431Z,100611.09
2023-03-29T08:43:24.114Z,100617.31
2023-03-29T08:46:35.424Z,100611.88
2023-03-29T08:49:30.566Z,100596.78
2023-03-29T08:52:01.172Z,100599.53
2023-03-29T08:54:36.506Z,100591.66
2023-03-29T08:57:15.989Z,100593.41
2023-03-29T08:59:49.668Z,100593.28
2023-03-29T09:02:22.431Z,100586.97
2023-03-29T09:04:56.201Z,100585.41
2023-03-29T09:07:29.809Z,100580.09
2023-03-29T09:09:57.658Z,100582.53
2023-03-29T09:12:40.240Z,100586.03
2023-03-29T09:15:13.225Z,100581.31
2023-03-29T09:17:53.709Z,100582.69
2023-03-29T09:20:29.828Z,100593.69
2023-03-29T09:23:08.242Z,100590.72
2023-03-29T09:26:00.737Z,100586.19
2023-03-29T09:28:49.466Z,100584.16
2023-03-29T09:31:21.289Z,100582.63
2023-03-29T09:33:56.782Z,100582.38
2023-03-29T09:36:35.843Z,100587.50
2023-03-29T09:39:04.330Z,100575.66
2023-03-29T09:41:39.075Z,100579.72
2023-03-29T09:44:15.005Z,100584.06
2023-03-29T09:46:54.019Z,100576.84
2023-03-29T09:49:27.117Z,100574.94
2023-03-29T09:51:58.045Z,100557.88
2023-03-29T09:54:24.501Z,100559.97
2023-03-29T09:57:04.546Z,100564.25
2023-03-29T09:59:31.389Z,100557.56
2023-03-29T10:02:07.729Z,100560.97
2023-03-29T10:04:34.402Z,100562.00
2023-03-29T10:07:01.476Z,100546.63
2023-03-29T10:09:29.860Z,100548.56
2023-03-29T10:12:10.512Z,100539.22
2023-03-29T10:14:40.996Z,100534.91
2023-03-29T10:17:14.013Z,100539.69
2023-03-29T10:19:49.091Z,100542.75
2023-03-29T10:22:19.238Z,100540.31
2023-03-29T10:24:48.988Z,100528.97
2023-03-29T10:27:20.296Z,100541.53
2023-03-29T10:29:46.825Z,100532.66
2023-03-29T10:32:14.706Z,100532.91
2023-03-29T10:34:41.309Z,100527.53
2023-03-29T10:37:10.303Z,100531.56
2023-03-29T10:39:36.841Z,100523.97
2023-03-29T10:42:04.202Z,100526.13
2023-03-29T10:44:34.547Z,100520.53
2023-03-29T10:47:09.051Z,100507.81
2023-03-29T10:49:44.341Z,100506.03
2023-03-29T10:52:13.897Z,100517.56
2023-03-29T10:54:40.475Z,100522.59
2023-03-29T10:57:10.651Z,100514.75
2023-03-29T10:59:44.532Z,100515.88
2023-03-29T11:02:30.217Z,100514.19
2023-03-29T11:05:08.895Z,100498.03
2023-03-29T11:07:43.604Z,100506.13
2023-03-29T11:10:28.969Z,100493.88
2023-03-29T11:13:04.047Z,100492.03
2023-03-29T11:15:46.908Z,100484.50
2023-03-29T11:18:43.247Z,100475.13
2023-03-29T11:21:19.414Z,100472.25
2023-03-29T11:23:53.532Z,100481.44
2023-03-29T11:26:24.501Z,100468.31
2023-03-29T11:28:56.335Z,100457.81
2023-03-29T11:31:36.503Z,100465.13
2023-03-29T11:34:20.435Z,100462.38
2023-03-29T11:36:54.772Z,100466.16
2023-03-29T11:39:34.378Z,100469.00
2023-03-29T11:42:07.751Z,100473.66
2023-03-29T11:44:36.203Z,100476.81
2023-03-29T11:47:10.900Z,100475.19
2023-03-29T11:49:41.392Z,100479.25
2023-03-29T11:52:13.026Z,100472.69
2023-03-29T11:54:45.960Z,100475.94
2023-03-29T11:57:19.631Z,100471.81
2023-03-29T11:59:55.024Z,100456.75
2023-03-29T12:02:28.274Z,100454.63
2023-03-29T12:04:58.729Z,100454.09
2023-03-29T12:07:30.456Z,100448.81
2023-03-29T12:10:01.385Z,100456.03
2023-03-29T12:12:36.193Z,100435.66
2023-03-29T12:15:05.615Z,100436.38
2023-03-29T12:17:39.231Z,100432.81
2023-03-29T12:20:15.093Z,100423.41
2023-03-29T12:22:46.649Z,100416.31
2023-03-29T12:25:18.479Z,100418.19
2023-03-29T12:27:57.355Z,100420.97
2023-03-29T12:30:34.727Z,100421.34
2023-03-29T12:33:20.621Z,100413.00
2023-03-29T12:36:18.838Z,100409.09
2023-03-29T12:39:03.920Z,100409.31
2023-03-29T12:41:48.877Z,100400.88
2023-03-29T12:44:51.353Z,100392.19
2023-03-29T12:47:26.462Z,100386.00
2023-03-29T12:49:55.949Z,100388.22
2023-03-29T12:52:26.787Z,100390.41
2023-03-29T12:54:55.440Z,100385.13
2023-03-29T12:57:26.875Z,100387.63
2023-03-29T12:59:53.428Z,100394.94
2023-03-29T13:02:36.120Z,100385.03
2023-03-29T13:05:04.497Z,100380.03
2023-03-29T13:07:43.943Z,100377.38
2023-03-29T13:10:30.461Z,100387.63
2023-03-29T13:12:57.083Z,100368.16
2023-03-29T13:15:26.260Z,100375.09
2023-03-29T13:17:59.928Z,100371.53
2023-03-29T13:20:41.996Z,100371.06
2023-03-29T13:23:26.153Z,100361.63
2023-03-29T13:26:05.856Z,100356.59
2023-03-29T13:28:42.272Z,100358.25
2023-03-29T13:31:24.282Z,100355.00
2023-03-29T13:34:00.036Z,100362.00
2023-03-29T13:36:40.350Z,100361.16
2023-03-29T13:39:14.730Z,100354.91
2023-03-29T13:41:47.941Z,100344.56
2023-03-29T13:44:25.611Z,100348.00
2023-03-29T13:47:03.725Z,100344.59
2023-03-29T13:49:33.925Z,100343.84
2023-03-29T13:52:10.368Z,100345.03
2023-03-29T13:54:41.999Z,100347.91
2023-03-29T13:57:15.347Z,100352.75
2023-03-29T13:59:51.418Z,100355.75
2023-03-29T14:02:30.799Z,100351.06
2023-03-29T14:05:00.179Z,100360.34
2023-03-29T14:07:30.082Z,100357.50
2023-03-29T14:09:58.333Z,100343.16
2023-03-29T14:12:31.660Z,100349.69
2023-03-29T14:15:01.661Z,100339.78
2023-03-29T14:17:28.180Z,100339.06
2023-03-29T14:19:57.158Z,100336.38
2023-03-29T14:22:23.689Z,100340.97
2023-03-29T14:24:54.366Z,100341.09
2023-03-29T14:27:21.673Z,100339.63
2023-03-29T14:29:50.033Z,100339.13
2023-03-29T14:32:18.013Z,100338.47
2023-03-29T14:34:48.048Z,100337.88
2023-03-29T14:37:17.044Z,100340.69
2023-03-29T14:39:43.452Z,100337.28
2023-03-29T14:42:15.985Z,100335.25
2023-03-29T14:44:43.619Z,100317.94
2023-03-29T14:47:17.569Z,100321.84
2023-03-29T14:49:44.938Z,100314.41
2023-03-29T14:52:13.747Z,100308.66
2023-03-29T14:54:44.196Z,100305.03
2023-03-29T14:57:15.458Z,100300.34
2023-03-29T14:59:42.913Z,100298.88
2023-03-29T15:02:23.293Z,100301.66
2023-03-29T15:04:55.543Z,100301.97
2023-03-29T15:07:22.978Z,100305.41
2023-03-29T15:09:49.669Z,100295.63
2023-03-29T15:12:17.698Z,100285.63
2023-03-29T15:14:44.531Z,100269.88
2023-03-29T15:17:27.002Z,100280.72
2023-03-29T15:20:00.457Z,100274.09
2023-03-29T15:22:34.374Z,100268.94
2023-03-29T15:25:01.506Z,100268.13
2023-03-29T15:27:40.085Z,100271.38
2023-03-29T15:30:13.083Z,100273.94
2023-03-29T15:32:39.761Z,100267.91
2023-03-29T15:35:08.802Z,100277.78
2023-03-29T15:37:35.616Z,100281.41
2023-03-29T15:40:02.217Z,100287.38
2023-03-29T15:42:30.012Z,100288.44
2023-03-29T15:44:56.580Z,100281.22
2023-03-29T15:47:23.078Z,100277.94
2023-03-29T15:49:49.727Z,100284.19
2023-03-29T15:52:16.152Z,100274.56
2023-03-29T15:54:42.637Z,100266.72
2023-03-29T15:57:13.625Z,100269.72
2023-03-29T15:59:42.018Z,100281.06
2023-03-29T16:02:12.631Z,100283.66
2023-03-29T16:04:39.192Z,100287.94
2023-03-29T16:07:10.118Z,100285.72
2023-03-29T16:09:36.508Z,100283.47
2023-03-29T16:12:03.350Z,100290.81
2023-03-29T16:14:30.904Z,100278.75
2023-03-29T16:17:00.179Z,100279.13
2023-03-29T16:19:29.030Z,100276.28
2023-03-29T16:21:55.646Z,100267.78
2023-03-29T16:24:24.751Z,100266.19
2023-03-29T16:26:54.010Z,100273.72
2023-03-29T16:29:22.384Z,100264.94
2023-03-29T16:31:49.694Z,100259.63
2023-03-29T16:34:17.640Z,100266.09
2023-03-29T16:36:44.819Z,100261.53
2023-03-29T16:39:11.946Z,100260.03
2023-03-29T16:41:38.938Z,100261.00
2023-03-29T16:44:05.454Z,100259.28
2023-03-29T16:46:31.973Z,100256.56
2023-03-29T16:48:58.444Z,100246.59
2023-03-29T16:51:26.432Z,100245.63
2023-03-29T16:53:52.823Z,100251.81
2023-03-29T16:56:19.482Z,100244.72
2023-03-29T16:58:46.335Z,100247.44
2023-03-29T17:01:14.372Z,100244.97
2023-03-29T17:03:40.814Z,100233.28
2023-03-29T17:06:08.723Z,100240.63
2023-03-29T17:08:37.127Z,100239.66
2023-03-29T17:11:03.970Z,100237.34
2023-03-29T17:13:30.428Z,100231.97
2023-03-29T17:15:57.218Z,100231.16
2023-03-29T17:18:27.852Z,100238.41
2023-03-29T17:20:56.565Z,100243.00
2023-03-29T17:23:23.780Z,100236.88
2023-03-29T17:25:54.236Z,100240.47
2023-03-29T17:28:20.651Z,100234.44
2023-03-29T17:30:47.120Z,100233.66
2023-03-29T17:33:13.535Z,100239.31
2023-03-29T17:35:41.627Z,100247.69
2023-03-29T17:38:08.100Z,100238.09
2023-03-29T17:40:34.886Z,100240.88
2023-03-29T17:43:02.628Z,100250.06
2023-03-29T17:45:30.691Z,100242.84
2023-03-29T17:47:57.128Z,100241.94
2023-03-29T17:50:24.621Z,100247.44
2023-03-29T17:52:51.022Z,100248.41
2023-03-29T17:55:17.756Z,100255.72
2023-03-29T17:57:44.240Z,100255.88
2023-03-29T18:00:16.125Z,100263.19
2023-03-29T18:02:43.203Z,100256.72
2023-03-29T18:05:10.248Z,100264.69
2023-03-29T18:07:37.308Z,100269.16
2023-03-29T18:10:04.636Z,100263.63
2023-03-29T18:12:31.162Z,100250.13
2023-03-29T18:14:57.628Z,100252.78
2023-03-29T18:17:25.514Z,100258.31
2023-03-29T18:19:54.417Z,100249.56
2023-03-29T18:22:20.998Z,100254.31
2023-03-29T18:24:47.467Z,100256.22
2023-03-29T18:27:13.959Z,100249.28
2023-03-29T18:29:40.517Z,100247.50
2023-03-29T18:32:07.216Z,100254.28
2023-03-29T18:34:35.032Z,100246.56
2023-03-29T18:37:01.542Z,100254.72
2023-03-29T18:39:28.182Z,100262.31
2023-03-29T18:41:54.654Z,100261.59
2023-03-29T18:44:21.108Z,100263.56
2023-03-29T18:46:47.593Z,100259.19
2023-03-29T18:49:14.102Z,100264.75
2023-03-29T18:51:41.928Z,100258.38
2023-03-29T18:54:08.386Z,100251.22
2023-03-29T18:56:34.899Z,100250.97
2023-03-29T18:59:01.324Z,100253.75
2023-03-29T19:01:27.815Z,100251.06
2023-03-29T19:03:54.374Z,100251.22
2023-03-29T19:06:20.864Z,100250.44
2023-03-29T19:08:48.619Z,100247.00
2023-03-29T19:11:15.086Z,100240.81
2023-03-29T19:13:41.732Z,100239.91
2023-03-29T19:16:08.608Z,100239.06
2023-03-29T19:18:35.392Z,100231.88
2023-03-29T19:21:01.842Z,100235.47
2023-03-29T19:23:35.365Z,100236.34
2023-03-29T19:30:01.754Z,100198.28
2023-03-29T19:36:07.653Z,100185.13
2023-03-29T19:38:56.394Z,100209.09
2023-03-29T19:41:30.221Z,100195.78
2023-03-29T19:43:56.800Z,100212.66
2023-03-29T19:46:23.367Z,100203.56
2023-03-29T19:48:52.054Z,100207.09
2023-03-29T19:51:18.688Z,100199.09
2023-03-29T19:53:45.119Z,100187.53
2023-03-29T19:56:11.587Z,100187.75
2023-03-29T19:58:39.413Z,100195.78
2023-03-29T20:01:06.198Z,100186.13
2023-03-29T20:03:32.790Z,100188.88
2023-03-29T20:05:59.961Z,100190.75
2023-03-29T20:08:26.525Z,100187.13
2023-03-29T20:10:56.886Z,100181.81
2023-03-29T20:13:37.555Z,100174.41
2023-03-29T20:16:07.334Z,100175.41
2023-03-29T20:18:33.816Z,100161.25
2023-03-29T20:21:00.881Z,100163.66
2023-03-29T20:23:27.557Z,100159.28
2023-03-29T20:25:54.190Z,100148.47
2023-03-29T20:28:20.717Z,100152.09
2023-03-29T20:30:47.232Z,100157.63
2023-03-29T20:33:14.985Z,100165.97
2023-03-29T20:35:41.424Z,100162.44
2023-03-29T20:38:07.928Z,100167.00
2023-03-29T20:40:34.750Z,100159.72
2023-03-29T20:43:01.615Z,100162.50
2023-03-29T20:45:28.136Z,100157.84
2023-03-29T20:47:54.635Z,100165.91
2023-03-29T20:50:22.714Z,100158.63
2023-03-29T20:52:49.132Z,100155.03
2023-03-29T20:55:15.799Z,100150.66
2023-03-29T20:57:42.172Z,100155.22
2023-03-29T21:00:09.428Z,100154.41
2023-03-29T21:02:35.991Z,100150.88
2023-03-29T21:05:02.476Z,100148.22
2023-03-29T21:07:30.209Z,100156.19
2023-03-29T21:09:56.693Z,100132.97
2023-03-29T21:12:23.184Z,100145.59
2023-03-29T21:14:49.973Z,100141.22
2023-03-29T21:17:16.444Z,100136.75
2023-03-29T21:19:42.825Z,100130.47
2023-03-29T21:22:09.263Z,100136.75
2023-03-29T21:24:36.985Z,100130.53
2023-03-29T21:27:03.569Z,100127.00
2023-03-29T21:29:30.003Z,100138.50
2023-03-29T21:31:56.767Z,100125.94
2023-03-29T21:34:23.242Z,100124.16
2023-03-29T21:36:49.941Z,100116.03
2023-03-29T21:39:16.419Z,100124.03
2023-03-29T21:41:44.249Z,100115.13
2023-03-29T21:44:10.708Z,100122.97
2023-03-29T21:46:37.247Z,100115.69
2023-03-29T21:49:03.708Z,100113.00
2023-03-29T21:51:30.166Z,100113.00
2023-03-29T21:53:56.547Z,100111.13
2023-03-29T21:56:23.020Z,100104.66
2023-03-29T21:58:50.829Z,100103.72
2023-03-29T22:01:17.545Z,100109.16
2023-03-29T22:03:43.973Z,100102.84
2023-03-29T22:06:13.879Z,100099.31
2023-03-29T22:08:40.666Z,100101.84
2023-03-29T22:11:09.396Z,100094.66
2023-03-29T22:13:37.111Z,100101.94
2023-03-29T22:16:05.992Z,100109.16
2023-03-29T22:18:34.615Z,100109.16
2023-03-29T22:21:01.296Z,100103.81
2023-03-29T22:23:27.881Z,100097.59
2023-03-29T22:25:54.311Z,100104.84
2023-03-29T22:28:20.730Z,100094.78
2023-03-29T22:30:47.083Z,100091.03
2023-03-29T22:33:14.842Z,100095.31
2023-03-29T22:35:41.322Z,100070.16
2023-03-29T22:38:07.784Z,100072.78
2023-03-29T22:40:39.193Z,100076.09
2023-03-29T22:43:05.730Z,100076.91
2023-03-29T22:45:32.163Z,100076.00
2023-03-29T22:47:58.636Z,100057.06
2023-03-29T22:50:26.426Z,100052.19
2023-03-29T22:52:52.872Z,100057.56
2023-03-29T22:55:19.364Z,100044.91
2023-03-29T22:57:45.795Z,100048.44
2023-03-29T23:00:13.169Z,100045.72
2023-03-29T23:02:39.744Z,100044.97
2023-03-29T23:05:07.450Z,100026.78
2023-03-29T23:07:35.301Z,99988.88
2023-03-29T23:10:03.287Z,99990.66
2023-03-29T23:12:29.711Z,99983.44
2023-03-29T23:14:56.183Z,99956.28
2023-03-29T23:17:22.662Z,99965.09
2023-03-29T23:19:49.072Z,99955.69
2023-03-29T23:22:15.681Z,99992.38
2023-03-29T23:24:43.399Z,100008.22
2023-03-29T23:27:09.955Z,100006.41
2023-03-29T23:29:36.341Z,100017.34
2023-03-29T23:32:02.735Z,100008.16
2023-03-29T23:34:29.103Z,100008.16
2023-03-29T23:36:55.626Z,99993.81
2023-03-29T23:39:22.445Z,99988.53
2023-03-29T23:41:50.201Z,99991.09
2023-03-29T23:44:16.701Z,99982.88
2023-03-29T23:46:43.229Z,99963.94
2023-03-29T23:49:09.753Z,99968.50
2023-03-29T23:51:36.254Z,99973.78
2023-03-29T23:54:02.769Z,99947.53
2023-03-29T23:56:29.207Z,99944.16
2023-03-29T23:58:56.943Z,99966.63
